createdAt,value
2022-12-01T00:00:55.155Z,106.17
2022-12-01T00:04:17.014Z,103.87
2022-12-01T00:07:38.996Z,105.67
2022-12-01T00:11:05.948Z,108.97
2022-12-01T00:14:27.870Z,94.87
2022-12-01T00:17:50.354Z,98.57
2022-12-01T00:21:15.420Z,97.87
2022-12-01T00:24:37.005Z,92.60
2022-12-01T00:28:00.305Z,89.33
2022-12-01T00:31:23.246Z,92.30
2022-12-01T00:34:45.382Z,94.10
2022-12-01T00:38:07.090Z,92.87
2022-12-01T00:41:29.037Z,95.97
2022-12-01T00:44:51.850Z,102.90
2022-12-01T00:48:13.827Z,88.37
2022-12-01T00:51:35.567Z,90.33
2022-12-01T00:54:57.347Z,85.30
2022-12-01T00:58:19.036Z,79.17
2022-12-01T01:01:42.325Z,86.07
2022-12-01T01:05:04.211Z,90.40
2022-12-01T01:08:25.795Z,85.77
2022-12-01T01:11:47.693Z,89.87
2022-12-01T01:15:10.053Z,98.07
2022-12-01T01:18:33.846Z,108.07
2022-12-01T01:21:55.456Z,101.17
2022-12-01T01:25:17.437Z,98.30
2022-12-01T01:28:41.586Z,99.20
2022-12-01T01:32:04.267Z,108.97
2022-12-01T01:35:27.298Z,99.93
2022-12-01T01:38:51.524Z,108.27
2022-12-01T01:42:14.867Z,100.27
2022-12-01T01:45:36.804Z,102.63
2022-12-01T01:49:01.440Z,93.13
2022-12-01T01:52:25.702Z,98.57
2022-12-01T01:55:47.496Z,98.90
2022-12-01T01:59:09.355Z,91.67
2022-12-01T02:02:31.431Z,93.80
2022-12-01T02:05:53.394Z,90.40
2022-12-01T02:09:16.842Z,98.77
2022-12-01T02:13:01.510Z,94.53
2022-12-01T02:16:32.323Z,94.37
2022-12-01T02:20:28.662Z,97.57
2022-12-01T02:24:28.129Z,93.33
2022-12-01T02:28:14.766Z,88.73
2022-12-01T02:31:42.795Z,100.67
2022-12-01T02:35:14.410Z,96.00
2022-12-01T02:38:40.963Z,95.30
2022-12-01T02:42:06.802Z,90.97
2022-12-01T02:45:37.212Z,92.63
2022-12-01T02:49:05.847Z,93.17
2022-12-01T02:52:29.702Z,93.00
2022-12-01T02:55:53.997Z,90.30
2022-12-01T02:59:16.418Z,93.63
2022-12-01T03:02:44.139Z,90.97
2022-12-01T03:06:15.950Z,95.27
2022-12-01T03:09:47.979Z,91.43
2022-12-01T03:13:21.298Z,83.57
2022-12-01T03:16:50.858Z,86.80
2022-12-01T03:20:19.537Z,91.73
2022-12-01T03:23:45.391Z,89.03
2022-12-01T03:27:07.634Z,92.07
2022-12-01T03:30:31.296Z,91.87
2022-12-01T03:33:58.535Z,87.67
2022-12-01T03:37:26.545Z,85.80
2022-12-01T03:40:52.846Z,91.80
2022-12-01T03:44:21.899Z,88.10
2022-12-01T03:47:43.986Z,88.10
2022-12-01T03:51:15.114Z,88.47
2022-12-01T03:54:46.742Z,89.87
2022-12-01T03:58:14.142Z,92.30
2022-12-01T04:01:36.461Z,102.80
2022-12-01T04:04:58.270Z,98.27
2022-12-01T04:08:20.097Z,94.67
2022-12-01T04:12:13.334Z,100.73
2022-12-01T04:15:36.415Z,109.47
2022-12-01T04:18:58.174Z,111.23
2022-12-01T04:22:20.257Z,106.77
2022-12-01T04:25:42.166Z,113.43
2022-12-01T04:29:06.570Z,110.47
2022-12-01T04:32:29.899Z,114.17
2022-12-01T04:35:58.089Z,121.20
2022-12-01T04:39:20.170Z,116.60
2022-12-01T04:42:42.429Z,128.37
2022-12-01T04:46:04.480Z,120.30
2022-12-01T04:49:27.650Z,123.67
2022-12-01T04:52:49.658Z,114.47
2022-12-01T04:56:11.690Z,123.17
2022-12-01T04:59:33.211Z,121.87
2022-12-01T05:02:55.109Z,124.73
2022-12-01T05:06:20.693Z,125.63
2022-12-01T05:09:42.527Z,129.17
2022-12-01T05:13:04.956Z,119.10
2022-12-01T05:16:29.059Z,125.10
2022-12-01T05:20:08.937Z,120.47
2022-12-01T05:23:33.792Z,116.17
2022-12-01T05:26:55.401Z,121.13
2022-12-01T05:30:17.541Z,120.30
2022-12-01T05:33:39.495Z,121.43
2022-12-01T05:37:01.277Z,122.43
2022-12-01T05:40:24.371Z,115.23
2022-12-01T05:43:45.938Z,117.13
2022-12-01T05:47:07.806Z,119.53
2022-12-01T05:50:31.432Z,114.60
2022-12-01T05:53:52.911Z,121.57
2022-12-01T05:57:16.236Z,122.13
2022-12-01T06:00:44.998Z,112.43
2022-12-01T06:04:08.827Z,121.17
2022-12-01T06:07:30.822Z,116.13
2022-12-01T06:10:52.792Z,111.47
2022-12-01T06:14:15.981Z,108.60
2022-12-01T06:17:40.470Z,105.43
2022-12-01T06:21:02.862Z,97.07
2022-12-01T06:24:25.018Z,108.93
2022-12-01T06:27:47.010Z,97.17
2022-12-01T06:31:10.078Z,102.37
2022-12-01T06:34:32.010Z,101.83
2022-12-01T06:37:54.588Z,99.73
2022-12-01T06:41:16.186Z,100.63
2022-12-01T06:44:38.019Z,95.80
2022-12-01T06:48:01.089Z,104.27
2022-12-01T06:51:22.934Z,89.63
2022-12-01T06:54:44.890Z,91.23
2022-12-01T06:58:07.258Z,99.60
2022-12-01T07:01:29.386Z,94.33
2022-12-01T07:04:52.559Z,91.83
2022-12-01T07:08:14.578Z,91.37
2022-12-01T07:11:37.039Z,100.03
2022-12-01T07:14:59.225Z,89.20
2022-12-01T07:18:20.851Z,91.83
2022-12-01T07:21:44.165Z,84.30
2022-12-01T07:25:06.472Z,83.10
2022-12-01T07:28:28.321Z,81.30
2022-12-01T07:31:49.906Z,78.03
2022-12-01T07:35:11.415Z,80.93
2022-12-01T07:38:35.767Z,77.47
2022-12-01T07:41:58.534Z,77.70
2022-12-01T07:45:20.406Z,80.20
2022-12-01T07:48:42.659Z,75.80
2022-12-01T07:52:04.835Z,78.00
2022-12-01T07:55:27.847Z,73.87
2022-12-01T07:58:49.695Z,76.27
2022-12-01T08:02:12.204Z,74.40
2022-12-01T08:05:34.114Z,78.17
2022-12-01T08:08:56.286Z,80.27
2022-12-01T08:12:19.509Z,78.03
2022-12-01T08:15:41.175Z,75.87
2022-12-01T08:19:03.161Z,72.77
2022-12-01T08:22:25.127Z,79.93
2022-12-01T08:25:47.049Z,71.47
2022-12-01T08:29:10.404Z,75.17
2022-12-01T08:32:32.527Z,73.20
2022-12-01T08:35:54.014Z,72.83
2022-12-01T08:39:16.119Z,74.57
2022-12-01T08:42:37.658Z,71.13
2022-12-01T08:46:02.081Z,66.23
2022-12-01T08:49:23.913Z,73.20
2022-12-01T08:52:45.722Z,69.40
2022-12-01T08:56:09.472Z,72.60
2022-12-01T08:59:31.045Z,71.80
2022-12-01T09:02:54.404Z,71.90
2022-12-01T09:06:17.685Z,73.07
2022-12-01T09:09:39.145Z,71.57
2022-12-01T09:13:01.427Z,75.77
2022-12-01T09:16:23.438Z,64.43
2022-12-01T09:19:46.835Z,65.60
2022-12-01T09:23:08.658Z,66.00
2022-12-01T09:26:30.499Z,65.83
2022-12-01T09:29:52.499Z,69.80
2022-12-01T09:33:15.601Z,66.70
2022-12-01T09:36:40.233Z,67.83
2022-12-01T09:40:01.953Z,71.00
2022-12-01T09:43:28.005Z,65.77
2022-12-01T09:46:56.289Z,63.70
2022-12-01T09:50:24.105Z,67.13
2022-12-01T09:53:50.295Z,66.63
2022-12-01T09:57:18.655Z,63.57
2022-12-01T10:00:44.341Z,61.17
2022-12-01T10:04:13.109Z,68.47
2022-12-01T10:07:40.251Z,69.27
2022-12-01T10:11:09.566Z,65.30
2022-12-01T10:14:36.877Z,63.53
2022-12-01T10:18:09.179Z,63.97
2022-12-01T10:21:51.060Z,65.97
2022-12-01T10:25:22.876Z,65.03
2022-12-01T10:29:11.690Z,68.43
2022-12-01T10:32:53.222Z,61.23
2022-12-01T10:36:15.062Z,60.70
2022-12-01T10:39:40.974Z,63.67
2022-12-01T10:43:03.884Z,62.37
2022-12-01T10:46:31.081Z,60.83
2022-12-01T10:49:53.645Z,62.33
2022-12-01T10:53:30.744Z,55.70
2022-12-01T10:56:58.160Z,60.70
2022-12-01T11:00:57.476Z,63.70
2022-12-01T11:04:08.998Z,58.93
2022-12-01T11:07:34.194Z,61.47
2022-12-01T11:10:56.674Z,63.17
2022-12-01T11:14:21.197Z,62.37
2022-12-01T11:17:44.532Z,61.93
2022-12-01T11:21:11.217Z,59.80
2022-12-01T11:24:43.105Z,58.20
2022-12-01T11:28:06.085Z,56.30
2022-12-01T11:31:39.512Z,62.73
2022-12-01T11:35:04.162Z,64.40
2022-12-01T11:38:35.050Z,60.73
2022-12-01T11:41:59.162Z,66.40
2022-12-01T11:45:29.225Z,62.70
2022-12-01T11:48:59.691Z,64.17
2022-12-01T11:52:28.450Z,63.10
2022-12-01T11:55:51.440Z,61.20
2022-12-01T11:59:17.892Z,64.27
2022-12-01T12:02:48.827Z,117.97
2022-12-01T12:10:15.775Z,85.13
2022-12-01T12:13:57.639Z,79.03
2022-12-01T12:17:30.982Z,71.80
2022-12-01T12:21:06.586Z,69.93
2022-12-01T12:24:48.838Z,63.87
2022-12-01T12:28:29.502Z,62.67
2022-12-01T12:32:05.008Z,62.90
2022-12-01T12:35:35.713Z,64.73
2022-12-01T12:39:12.149Z,61.63
2022-12-01T12:42:50.074Z,62.50
2022-12-01T12:46:14.126Z,64.43
2022-12-01T12:49:45.155Z,59.90
2022-12-01T12:53:16.929Z,56.80
2022-12-01T12:56:39.867Z,62.20
2022-12-01T13:00:06.415Z,55.37
2022-12-01T13:03:46.565Z,59.73
2022-12-01T13:07:29.552Z,56.33
2022-12-01T13:10:58.041Z,64.80
2022-12-01T13:14:26.986Z,60.13
2022-12-01T13:17:53.111Z,56.97
2022-12-01T13:21:18.783Z,59.40
2022-12-01T13:24:42.033Z,52.77
2022-12-01T13:28:07.000Z,58.50
2022-12-01T13:31:28.736Z,53.40
2022-12-01T13:34:50.943Z,73.90
2022-12-01T13:38:26.061Z,56.00
2022-12-01T13:42:02.097Z,52.53
2022-12-01T13:45:23.705Z,50.73
2022-12-01T13:48:53.668Z,48.57
2022-12-01T13:52:33.775Z,50.57
2022-12-01T13:56:20.878Z,52.77
2022-12-01T14:00:07.955Z,52.23
2022-12-01T14:03:41.603Z,53.57
2022-12-01T14:07:40.114Z,52.00
2022-12-01T14:11:04.535Z,48.43
2022-12-01T14:14:29.312Z,50.20
2022-12-01T14:18:02.521Z,55.23
2022-12-01T14:21:47.930Z,56.43
2022-12-01T14:25:25.702Z,48.03
2022-12-01T14:29:24.725Z,45.80
2022-12-01T14:32:46.611Z,51.37
2022-12-01T14:36:16.441Z,47.93
2022-12-01T14:39:42.348Z,50.57
2022-12-01T14:43:23.782Z,47.40
2022-12-01T14:46:50.263Z,49.37
2022-12-01T14:50:17.897Z,48.50
2022-12-01T14:53:45.750Z,48.03
2022-12-01T14:57:13.693Z,48.90
2022-12-01T15:00:39.368Z,47.40
2022-12-01T15:04:04.430Z,48.63
2022-12-01T15:07:26.077Z,51.33
2022-12-01T15:10:55.367Z,52.03
2022-12-01T15:14:26.332Z,46.27
2022-12-01T15:17:48.475Z,47.73
2022-12-01T15:21:14.171Z,46.60
2022-12-01T15:24:36.422Z,48.70
2022-12-01T15:28:15.082Z,51.23
2022-12-01T15:31:37.269Z,50.43
2022-12-01T15:35:01.920Z,49.83
2022-12-01T15:38:27.743Z,48.53
2022-12-01T15:41:54.117Z,47.93
2022-12-01T15:45:20.942Z,51.83
2022-12-01T15:48:43.391Z,51.70
2022-12-01T15:52:08.863Z,47.53
2022-12-01T15:55:33.232Z,49.17
2022-12-01T15:58:58.823Z,50.63
2022-12-01T16:02:29.028Z,51.20
2022-12-01T16:05:51.010Z,46.13
2022-12-01T16:09:22.650Z,48.43
2022-12-01T16:12:44.432Z,49.57
2022-12-01T16:16:23.416Z,44.67
2022-12-01T16:19:47.865Z,51.90
2022-12-01T16:23:12.716Z,50.60
2022-12-01T16:26:34.998Z,45.60
2022-12-01T16:29:59.079Z,49.77
2022-12-01T16:33:24.030Z,54.17
2022-12-01T16:36:47.227Z,51.87
2022-12-01T16:40:11.459Z,49.60
2022-12-01T16:43:33.227Z,47.70
2022-12-01T16:46:55.164Z,48.63
2022-12-01T16:50:17.859Z,50.53
2022-12-01T16:53:41.034Z,48.00
2022-12-01T16:57:02.831Z,52.37
2022-12-01T17:00:25.166Z,47.00
2022-12-01T17:03:47.418Z,50.23
2022-12-01T17:07:09.607Z,50.10
2022-12-01T17:10:32.858Z,47.17
2022-12-01T17:13:54.461Z,44.50
2022-12-01T17:17:16.618Z,44.57
2022-12-01T17:20:38.712Z,50.30
2022-12-01T17:24:00.289Z,45.40
2022-12-01T17:27:23.302Z,52.00
2022-12-01T17:30:44.952Z,50.47
2022-12-01T17:34:06.757Z,50.03
2022-12-01T17:37:29.657Z,47.00
2022-12-01T17:41:01.884Z,46.90
2022-12-01T17:44:25.114Z,51.53
2022-12-01T17:47:47.246Z,49.73
2022-12-01T17:51:09.806Z,48.83
2022-12-01T17:54:31.546Z,47.17
2022-12-01T17:57:53.408Z,46.70
2022-12-01T18:01:19.418Z,45.87
2022-12-01T18:04:41.824Z,44.17
2022-12-01T18:08:03.805Z,43.07
2022-12-01T18:11:25.722Z,47.23
2022-12-01T18:14:47.878Z,45.20
2022-12-01T18:18:11.024Z,45.67
2022-12-01T18:21:32.631Z,50.67
2022-12-01T18:24:54.193Z,50.57
2022-12-01T18:28:16.172Z,50.43
2022-12-01T18:31:38.846Z,52.53
2022-12-01T18:35:01.966Z,51.87
2022-12-01T18:38:24.935Z,54.63
2022-12-01T18:41:46.863Z,50.70
2022-12-01T18:45:09.594Z,54.13
2022-12-01T18:48:31.742Z,53.00
2022-12-01T18:51:54.931Z,49.57
2022-12-01T18:55:16.598Z,49.77
2022-12-01T18:58:38.663Z,53.53
2022-12-01T19:02:00.526Z,49.33
2022-12-01T19:05:22.570Z,51.00
2022-12-01T19:08:45.736Z,56.33
2022-12-01T19:12:08.463Z,53.33
2022-12-01T19:15:30.180Z,54.47
2022-12-01T19:18:52.170Z,52.90
2022-12-01T19:22:14.164Z,50.70
2022-12-01T19:25:37.859Z,51.87
2022-12-01T19:29:00.465Z,53.47
2022-12-01T19:32:24.324Z,50.40
2022-12-01T19:35:46.210Z,53.33
2022-12-01T19:39:08.362Z,56.17
2022-12-01T19:42:33.054Z,53.33
2022-12-01T19:45:54.720Z,51.60
2022-12-01T19:49:16.346Z,48.73
2022-12-01T19:52:38.916Z,53.97
2022-12-01T19:56:02.843Z,46.47
2022-12-01T19:59:26.159Z,48.03
2022-12-01T20:02:47.799Z,47.10
2022-12-01T20:06:11.892Z,47.00
2022-12-01T20:09:33.701Z,53.27
2022-12-01T20:12:55.349Z,49.80
2022-12-01T20:16:20.017Z,47.80
2022-12-01T20:19:41.696Z,53.27
2022-12-01T20:23:03.544Z,49.43
2022-12-01T20:26:30.437Z,44.97
2022-12-01T20:29:52.635Z,46.47
2022-12-01T20:33:16.633Z,48.30
2022-12-01T20:36:40.550Z,46.40
2022-12-01T20:40:02.867Z,43.77
2022-12-01T20:43:24.760Z,49.23
2022-12-01T20:46:47.590Z,43.50
2022-12-01T20:50:11.709Z,46.50
2022-12-01T20:53:34.332Z,46.03
2022-12-01T20:56:56.205Z,44.40
2022-12-01T21:00:18.433Z,42.60
2022-12-01T21:03:42.014Z,49.63
2022-12-01T21:07:05.463Z,47.53
2022-12-01T21:10:27.578Z,50.10
2022-12-01T21:13:48.579Z,50.50
2022-12-01T21:17:24.544Z,50.00
2022-12-01T21:20:49.796Z,50.33
2022-12-01T21:24:17.065Z,47.47
2022-12-01T21:27:38.728Z,48.57
2022-12-01T21:31:08.300Z,45.87
2022-12-01T21:34:30.596Z,46.37
2022-12-01T21:37:59.250Z,46.30
2022-12-01T21:41:27.222Z,47.83
2022-12-01T21:44:49.706Z,45.30
2022-12-01T21:48:16.908Z,44.60
2022-12-01T21:51:38.959Z,47.93
2022-12-01T21:55:03.454Z,48.50
2022-12-01T21:58:30.211Z,49.00
2022-12-01T22:01:54.684Z,45.80
2022-12-01T22:05:28.322Z,46.10
2022-12-01T22:08:52.439Z,48.43
2022-12-01T22:12:25.450Z,47.63
2022-12-01T22:15:48.779Z,46.57
2022-12-01T22:19:25.929Z,47.20
2022-12-01T22:22:47.868Z,44.43
2022-12-01T22:26:17.506Z,45.97
2022-12-01T22:29:43.023Z,46.03
2022-12-01T22:33:11.950Z,47.43
2022-12-01T22:36:34.386Z,47.90
2022-12-01T22:39:57.481Z,49.50
2022-12-01T22:43:30.999Z,47.07
2022-12-01T22:46:53.228Z,44.30
2022-12-01T22:50:27.425Z,45.73
2022-12-01T22:53:49.933Z,45.70
2022-12-01T22:57:25.120Z,47.80
2022-12-01T23:00:46.968Z,48.70
2022-12-01T23:04:27.564Z,54.10
2022-12-01T23:07:51.425Z,48.43
2022-12-01T23:11:13.573Z,46.10
2022-12-01T23:14:35.773Z,47.57
2022-12-01T23:17:59.911Z,52.53
2022-12-01T23:21:21.411Z,46.90
2022-12-01T23:24:45.031Z,49.00
2022-12-01T23:28:08.886Z,49.50
2022-12-01T23:31:31.064Z,45.30
2022-12-01T23:34:58.400Z,48.57
2022-12-01T23:38:24.598Z,50.07
2022-12-01T23:41:51.171Z,51.17
2022-12-01T23:45:17.650Z,45.27
2022-12-01T23:48:42.675Z,43.57
2022-12-01T23:52:05.263Z,49.57
2022-12-01T23:55:29.631Z,52.03
2022-12-01T23:58:53.802Z,45.23
